PWSweather.com
Personal Weather Stations
Station Observations
SOUTHSHROPSHIRE
Wheathill, BridgnorthGB Wv16 6QT

WheathillBridgnorthGB Wv16 6QT

Lat: 52.436666, Lon: -2.58768

Elevation: 1056

Station Type: Davis Vantage Vue

Latest ConditionsUpdated 10:10:00 PM GMT Friday, Oct 18, 2019
Currently Today's Max Today's Min Today's Average
Temperature 45.8°F7.7°C 48.1°F8.9°C 41.3°F5.2°C 45.4°F7.4°C
Dew Point 45.0°F7.2°C 46.9°F8.3°C 40.8°F4.9°C 44.6°F7.0°C
Winds 1.6 mph WNW2.6 kmh WNW 3.2 mph -5.1 kmh - - 1.7 mph 2.7 kmh
Wind Gusts 9.0 mph14.5 kmh 16.0 mph25.7 kmh - -
Humidity 97% 99% 93% 97%
Pressure 29.38 in994.9 mb 29.43 in996.6 mb 29.35 in993.9 mb -
Precipitation - 0.55 in14.0 mm - -
Hour Temp Dew Point Humidity Winds Wind Gusts Pressure Precip Precip Rate Daily Precip Total
10:10 PM 45.8°F7.7°C 45.0°F7.2°C 97% 1.6 mph WNW2.6 kmh WNW 9.0 mph14.5 kmh 29.38 in994.9 mb 0.00 in0.0 mm 0.00 in0.0 mm 0.55 in14.0 mm
10:00 PM 45.9°F7.7°C 44.8°F7.1°C 96% 1.7 mph NNW2.7 kmh NNW 7.0 mph11.3 kmh 29.38 in994.9 mb 0.00 in0.0 mm 0.00 in0.0 mm 0.55 in14.0 mm
09:50 PM 46.2°F7.9°C 45.1°F7.3°C 96% 2.8 mph NW4.5 kmh NW 11.0 mph17.7 kmh 29.38 in994.9 mb 0.00 in0.0 mm 0.00 in0.0 mm 0.55 in14.0 mm
09:40 PM 46.3°F7.9°C 45.2°F7.3°C 96% 2.6 mph NNW4.2 kmh NNW 10.0 mph16.1 kmh 29.38 in994.9 mb 0.00 in0.0 mm 0.00 in0.0 mm 0.55 in14.0 mm
09:30 PM 46.3°F7.9°C 45.2°F7.3°C 96% 2.4 mph NNW3.9 kmh NNW 9.0 mph14.5 kmh 29.38 in994.9 mb 0.00 in0.0 mm 0.00 in0.0 mm 0.55 in14.0 mm
09:20 PM 46.5°F8.1°C 45.4°F7.4°C 96% 2.7 mph N4.3 kmh N 8.0 mph12.9 kmh 29.38 in994.9 mb 0.00 in0.0 mm 0.00 in0.0 mm 0.55 in14.0 mm
09:10 PM 46.7°F8.2°C 45.6°F7.6°C 96% 2.4 mph NNW3.9 kmh NNW 9.0 mph14.5 kmh 29.37 in994.6 mb 0.00 in0.0 mm 0.00 in0.0 mm 0.55 in14.0 mm
09:00 PM 46.9°F8.3°C 45.8°F7.7°C 96% 2.7 mph NW4.3 kmh NW 10.0 mph16.1 kmh 29.37 in994.6 mb 0.00 in0.0 mm 0.00 in0.0 mm 0.55 in14.0 mm
08:50 PM 47.0°F8.3°C 45.9°F7.7°C 96% 2.8 mph N4.5 kmh N 11.0 mph17.7 kmh 29.37 in994.6 mb 0.00 in0.0 mm 0.00 in0.0 mm 0.55 in14.0 mm
08:40 PM 47.1°F8.4°C 45.7°F7.6°C 95% 3.2 mph NW5.1 kmh NW 16.0 mph25.7 kmh 29.37 in994.6 mb 0.00 in0.0 mm 0.00 in0.0 mm 0.55 in14.0 mm
08:30 PM 47.0°F8.3°C 45.9°F7.7°C 96% 2.8 mph N4.5 kmh N 10.0 mph16.1 kmh 29.37 in994.6 mb 0.00 in0.0 mm 0.00 in0.0 mm 0.55 in14.0 mm
08:20 PM 47.0°F8.3°C 45.6°F7.6°C 95% 2.6 mph ENE4.2 kmh ENE 15.0 mph24.1 kmh 29.37 in994.6 mb 0.00 in0.0 mm 0.00 in0.0 mm 0.55 in14.0 mm
08:10 PM 47.1°F8.4°C 45.7°F7.6°C 95% 2.8 mph E4.5 kmh E 12.0 mph19.3 kmh 29.36 in994.2 mb 0.00 in0.0 mm 0.00 in0.0 mm 0.55 in14.0 mm
08:00 PM 46.9°F8.3°C 45.8°F7.7°C 96% 2.3 mph ESE3.7 kmh ESE 7.0 mph11.3 kmh 29.36 in994.2 mb 0.00 in0.0 mm 0.00 in0.0 mm 0.55 in14.0 mm
07:50 PM 46.9°F8.3°C 45.8°F7.7°C 96% 2.3 mph SE3.7 kmh SE 9.0 mph14.5 kmh 29.36 in994.2 mb 0.00 in0.0 mm 0.00 in0.0 mm 0.55 in14.0 mm
07:40 PM 46.9°F8.3°C 45.8°F7.7°C 96% 1.9 mph NNW3.1 kmh NNW 10.0 mph16.1 kmh 29.36 in994.2 mb 0.00 in0.0 mm 0.00 in0.0 mm 0.55 in14.0 mm
07:30 PM 46.9°F8.3°C 45.8°F7.7°C 96% 2.3 mph NE3.7 kmh NE 9.0 mph14.5 kmh 29.36 in994.2 mb 0.00 in0.0 mm 0.00 in0.0 mm 0.55 in14.0 mm
07:20 PM 46.8°F8.2°C 45.7°F7.6°C 96% 2.5 mph N4.0 kmh N 11.0 mph17.7 kmh 29.37 in994.6 mb 0.00 in0.0 mm 0.00 in0.0 mm 0.55 in14.0 mm
07:10 PM 46.8°F8.2°C 46.0°F7.8°C 97% 2.2 mph E3.5 kmh E 10.0 mph16.1 kmh 29.36 in994.2 mb 0.00 in0.0 mm 0.00 in0.0 mm 0.55 in14.0 mm
07:00 PM 46.7°F8.2°C 45.9°F7.7°C 97% 2.0 mph ESE3.2 kmh ESE 9.0 mph14.5 kmh 29.36 in994.2 mb 0.00 in0.0 mm 0.00 in0.0 mm 0.55 in14.0 mm
06:50 PM 46.4°F8.0°C 45.6°F7.6°C 97% 1.7 mph ESE2.7 kmh ESE 8.0 mph12.9 kmh 29.36 in994.2 mb 0.00 in0.0 mm 0.00 in0.0 mm 0.55 in14.0 mm
06:40 PM 46.3°F7.9°C 45.5°F7.5°C 97% 2.5 mph NNW4.0 kmh NNW 8.0 mph12.9 kmh 29.36 in994.2 mb 0.00 in0.0 mm 0.00 in0.0 mm 0.55 in14.0 mm
06:30 PM 46.4°F8.0°C 45.6°F7.6°C 97% 2.6 mph N4.2 kmh N 8.0 mph12.9 kmh 29.36 in994.2 mb 0.01 in0.3 mm 0.00 in0.0 mm 0.55 in14.0 mm
06:20 PM 46.4°F8.0°C 45.6°F7.6°C 97% 3.0 mph NW4.8 kmh NW 9.0 mph14.5 kmh 29.36 in994.2 mb 0.05 in1.3 mm 0.00 in0.0 mm 0.55 in14.0 mm
06:10 PM 46.5°F8.1°C 45.7°F7.6°C 97% 1.7 mph SE2.7 kmh SE 8.0 mph12.9 kmh 29.36 in994.2 mb 0.07 in1.8 mm 0.00 in0.0 mm 0.55 in14.0 mm
06:00 PM 46.7°F8.2°C 45.9°F7.7°C 97% 2.5 mph NNE4.0 kmh NNE 10.0 mph16.1 kmh 29.36 in994.2 mb 0.09 in2.3 mm 0.00 in0.0 mm 0.55 in14.0 mm
05:50 PM 47.0°F8.3°C 46.2°F7.9°C 97% 2.6 mph N4.2 kmh N 11.0 mph17.7 kmh 29.35 in993.9 mb 0.09 in2.3 mm 0.00 in0.0 mm 0.55 in14.0 mm
05:40 PM 47.3°F8.5°C 46.5°F8.1°C 97% 2.6 mph NNW4.2 kmh NNW 8.0 mph12.9 kmh 29.36 in994.2 mb 0.09 in2.3 mm 0.00 in0.0 mm 0.55 in14.0 mm
05:30 PM 47.5°F8.6°C 46.7°F8.2°C 97% 1.6 mph NW2.6 kmh NW 7.0 mph11.3 kmh 29.36 in994.2 mb 0.09 in2.3 mm 0.18 in4.6 mm 0.54 in13.7 mm
05:20 PM 47.6°F8.7°C 46.8°F8.2°C 97% 2.4 mph ESE3.9 kmh ESE 8.0 mph12.9 kmh 29.37 in994.6 mb 0.06 in1.5 mm 0.06 in1.5 mm 0.50 in12.7 mm
05:10 PM 47.6°F8.7°C 46.8°F8.2°C 97% 2.0 mph SE3.2 kmh SE 8.0 mph12.9 kmh 29.36 in994.2 mb 0.05 in1.3 mm 0.12 in3.0 mm 0.48 in12.2 mm
05:00 PM 47.6°F8.7°C 46.8°F8.2°C 97% 1.8 mph ESE2.9 kmh ESE 8.0 mph12.9 kmh 29.37 in994.6 mb 0.03 in0.8 mm 0.00 in0.0 mm 0.46 in11.7 mm
04:50 PM 47.6°F8.7°C 46.8°F8.2°C 97% 1.9 mph SE3.1 kmh SE 7.0 mph11.3 kmh 29.37 in994.6 mb 0.05 in1.3 mm 0.00 in0.0 mm 0.46 in11.7 mm
04:40 PM 47.6°F8.7°C 46.5°F8.1°C 96% 2.1 mph ESE3.4 kmh ESE 9.0 mph14.5 kmh 29.37 in994.6 mb 0.07 in1.8 mm 0.00 in0.0 mm 0.46 in11.7 mm
04:30 PM 47.7°F8.7°C 46.9°F8.3°C 97% 1.9 mph SE3.1 kmh SE 13.0 mph20.9 kmh 29.38 in994.9 mb 0.07 in1.8 mm 0.00 in0.0 mm 0.45 in11.4 mm
04:20 PM 47.7°F8.7°C 46.9°F8.3°C 97% 1.9 mph ESE3.1 kmh ESE 8.0 mph12.9 kmh 29.37 in994.6 mb 0.09 in2.3 mm 0.06 in1.5 mm 0.45 in11.4 mm
04:10 PM 47.7°F8.7°C 46.9°F8.3°C 97% 2.4 mph ESE3.9 kmh ESE 11.0 mph17.7 kmh 29.37 in994.6 mb 0.08 in2.0 mm 0.00 in0.0 mm 0.43 in10.9 mm
04:00 PM 47.7°F8.7°C 46.9°F8.3°C 97% 1.9 mph SE3.1 kmh SE 7.0 mph11.3 kmh 29.38 in994.9 mb 0.09 in2.3 mm 0.00 in0.0 mm 0.43 in10.9 mm
03:50 PM 47.4°F8.6°C 46.6°F8.1°C 97% 2.8 mph ESE4.5 kmh ESE 10.0 mph16.1 kmh 29.38 in994.9 mb 0.09 in2.3 mm 0.18 in4.6 mm 0.41 in10.4 mm
03:40 PM 47.2°F8.4°C 46.4°F8.0°C 97% 2.6 mph SE4.2 kmh SE 10.0 mph16.1 kmh 29.38 in994.9 mb 0.06 in1.5 mm 0.00 in0.0 mm 0.39 in9.9 mm
03:30 PM 47.2°F8.4°C 46.1°F7.8°C 96% 2.3 mph SE3.7 kmh SE 9.0 mph14.5 kmh 29.38 in994.9 mb 0.06 in1.5 mm 0.12 in3.0 mm 0.38 in9.7 mm
03:20 PM 47.1°F8.4°C 46.0°F7.8°C 96% 2.2 mph SE3.5 kmh SE 9.0 mph14.5 kmh 29.39 in995.3 mb 0.04 in1.0 mm 0.00 in0.0 mm 0.35 in8.9 mm
03:10 PM 47.1°F8.4°C 46.0°F7.8°C 96% 1.8 mph SE2.9 kmh SE 7.0 mph11.3 kmh 29.39 in995.3 mb 0.04 in1.0 mm 0.06 in1.5 mm 0.35 in8.9 mm
03:00 PM 47.2°F8.4°C 45.8°F7.7°C 95% 1.4 mph SE2.3 kmh SE 7.0 mph11.3 kmh 29.39 in995.3 mb 0.03 in0.8 mm 0.01 in0.3 mm 0.35 in8.9 mm
02:50 PM 47.2°F8.4°C 45.8°F7.7°C 95% 2.6 mph SE4.2 kmh SE 10.0 mph16.1 kmh 29.39 in995.3 mb 0.02 in0.5 mm 0.00 in0.0 mm 0.32 in8.1 mm
02:40 PM 47.3°F8.5°C 45.9°F7.7°C 95% 1.3 mph SSE2.1 kmh SSE 5.0 mph8.0 kmh 29.39 in995.3 mb 0.02 in0.5 mm 0.06 in1.5 mm 0.32 in8.1 mm
02:30 PM 47.0°F8.3°C 45.9°F7.7°C 96% 1.2 mph WNW1.9 kmh WNW 4.0 mph6.4 kmh 29.40 in995.6 mb 0.01 in0.3 mm 0.00 in0.0 mm 0.31 in7.9 mm
02:20 PM 46.4°F8.0°C 45.0°F7.2°C 95% 1.3 mph NE2.1 kmh NE 5.0 mph8.0 kmh 29.39 in995.3 mb 0.01 in0.3 mm 0.00 in0.0 mm 0.31 in7.9 mm
02:10 PM 46.4°F8.0°C 45.0°F7.2°C 95% 1.8 mph NE2.9 kmh NE 8.0 mph12.9 kmh 29.40 in995.6 mb 0.01 in0.3 mm 0.00 in0.0 mm 0.31 in7.9 mm
02:00 PM 46.4°F8.0°C 44.8°F7.1°C 94% 1.9 mph N3.1 kmh N 7.0 mph11.3 kmh 29.40 in995.6 mb 0.01 in0.3 mm 0.01 in0.3 mm 0.31 in7.9 mm
01:50 PM 46.5°F8.1°C 44.9°F7.2°C 94% 2.0 mph N3.2 kmh N 10.0 mph16.1 kmh 29.40 in995.6 mb 0.00 in0.0 mm 0.00 in0.0 mm 0.31 in7.9 mm
01:40 PM 46.5°F8.1°C 44.9°F7.2°C 94% 2.3 mph NW3.7 kmh NW 8.0 mph12.9 kmh 29.39 in995.3 mb 0.00 in0.0 mm 0.00 in0.0 mm 0.31 in7.9 mm
01:30 PM 47.0°F8.3°C 45.1°F7.3°C 93% 2.4 mph N3.9 kmh N 10.0 mph16.1 kmh 29.40 in995.6 mb 0.00 in0.0 mm 0.00 in0.0 mm 0.31 in7.9 mm
01:20 PM 47.5°F8.6°C 45.6°F7.6°C 93% 1.8 mph NNE2.9 kmh NNE 8.0 mph12.9 kmh 29.41 in995.9 mb 0.00 in0.0 mm 0.00 in0.0 mm 0.31 in7.9 mm
01:10 PM 47.3°F8.5°C 45.9°F7.7°C 95% 1.5 mph NNW2.4 kmh NNW 5.0 mph8.0 kmh 29.41 in995.9 mb 0.00 in0.0 mm 0.00 in0.0 mm 0.31 in7.9 mm
01:00 PM 46.6°F8.1°C 45.0°F7.2°C 94% 1.6 mph SSE2.6 kmh SSE 5.0 mph8.0 kmh 29.40 in995.6 mb 0.00 in0.0 mm 0.00 in0.0 mm 0.31 in7.9 mm
12:50 PM 46.7°F8.2°C 45.3°F7.4°C 95% 1.6 mph SE2.6 kmh SE 7.0 mph11.3 kmh 29.41 in995.9 mb 0.01 in0.3 mm 0.00 in0.0 mm 0.31 in7.9 mm
12:40 PM 46.8°F8.2°C 45.4°F7.4°C 95% 1.3 mph N2.1 kmh N 5.0 mph8.0 kmh 29.41 in995.9 mb 0.02 in0.5 mm 0.00 in0.0 mm 0.31 in7.9 mm
12:30 PM 46.9°F8.3°C 45.5°F7.5°C 95% 2.3 mph NNW3.7 kmh NNW 7.0 mph11.3 kmh 29.41 in995.9 mb 0.02 in0.5 mm 0.00 in0.0 mm 0.31 in7.9 mm
12:20 PM 47.2°F8.4°C 46.1°F7.8°C 96% 2.4 mph NNW3.9 kmh NNW 10.0 mph16.1 kmh 29.41 in995.9 mb 0.02 in0.5 mm 0.00 in0.0 mm 0.31 in7.9 mm
12:10 PM 46.8°F8.2°C 45.7°F7.6°C 96% 2.0 mph SW3.2 kmh SW 6.0 mph9.7 kmh 29.41 in995.9 mb 0.02 in0.5 mm 0.00 in0.0 mm 0.31 in7.9 mm
12:00 PM 46.2°F7.9°C 44.8°F7.1°C 95% 2.4 mph E3.9 kmh E 9.0 mph14.5 kmh 29.41 in995.9 mb 0.02 in0.5 mm 0.01 in0.3 mm 0.31 in7.9 mm
11:50 AM 46.6°F8.1°C 44.7°F7.1°C 93% 2.3 mph E3.7 kmh E 9.0 mph14.5 kmh 29.42 in996.3 mb 0.01 in0.3 mm 0.06 in1.5 mm 0.30 in7.6 mm
11:40 AM 47.4°F8.6°C 45.8°F7.7°C 94% 1.8 mph ESE2.9 kmh ESE 6.0 mph9.7 kmh 29.42 in996.3 mb 0.00 in0.0 mm 0.00 in0.0 mm 0.29 in7.4 mm
11:30 AM 48.1°F8.9°C 46.7°F8.2°C 95% 1.3 mph SW2.1 kmh SW 5.0 mph8.0 kmh 29.42 in996.3 mb 0.00 in0.0 mm 0.00 in0.0 mm 0.29 in7.4 mm
11:20 AM 47.7°F8.7°C 46.6°F8.1°C 96% 1.6 mph NW2.6 kmh NW 7.0 mph11.3 kmh 29.41 in995.9 mb 0.01 in0.3 mm 0.00 in0.0 mm 0.29 in7.4 mm
11:10 AM 47.1°F8.4°C 46.3°F7.9°C 97% 1.9 mph NNW3.1 kmh NNW 9.0 mph14.5 kmh 29.42 in996.3 mb 0.02 in0.5 mm 0.00 in0.0 mm 0.29 in7.4 mm
11:00 AM 46.3°F7.9°C 45.5°F7.5°C 97% 2.2 mph SSE3.5 kmh SSE 8.0 mph12.9 kmh 29.42 in996.3 mb 0.02 in0.5 mm 0.00 in0.0 mm 0.29 in7.4 mm
10:50 AM 45.6°F7.6°C 44.8°F7.1°C 97% 2.1 mph SSE3.4 kmh SSE 9.0 mph14.5 kmh 29.41 in995.9 mb 0.02 in0.5 mm 0.00 in0.0 mm 0.29 in7.4 mm
10:40 AM 45.4°F7.4°C 44.6°F7.0°C 97% 2.5 mph E4.0 kmh E 10.0 mph16.1 kmh 29.41 in995.9 mb 0.02 in0.5 mm 0.00 in0.0 mm 0.29 in7.4 mm
10:30 AM 45.1°F7.3°C 44.0°F6.7°C 96% 1.8 mph E2.9 kmh E 8.0 mph12.9 kmh 29.41 in995.9 mb 0.02 in0.5 mm 0.00 in0.0 mm 0.29 in7.4 mm
10:20 AM 45.0°F7.2°C 43.9°F6.6°C 96% 2.1 mph E3.4 kmh E 7.0 mph11.3 kmh 29.41 in995.9 mb 0.02 in0.5 mm 0.12 in3.0 mm 0.28 in7.1 mm
10:10 AM 45.3°F7.4°C 44.2°F6.8°C 96% 1.8 mph WNW2.9 kmh WNW 8.0 mph12.9 kmh 29.42 in996.3 mb 0.00 in0.0 mm 0.00 in0.0 mm 0.27 in6.9 mm
10:00 AM 45.4°F7.4°C 44.6°F7.0°C 97% 1.8 mph W2.9 kmh W 10.0 mph16.1 kmh 29.41 in995.9 mb 0.00 in0.0 mm 0.00 in0.0 mm 0.27 in6.9 mm
09:50 AM 45.2°F7.3°C 44.7°F7.1°C 98% 1.3 mph NE2.1 kmh NE 7.0 mph11.3 kmh 29.42 in996.3 mb 0.00 in0.0 mm 0.00 in0.0 mm 0.27 in6.9 mm
09:40 AM 44.2°F6.8°C 43.7°F6.5°C 98% 1.6 mph NW2.6 kmh NW 7.0 mph11.3 kmh 29.41 in995.9 mb 0.00 in0.0 mm 0.00 in0.0 mm 0.27 in6.9 mm
09:30 AM 43.5°F6.4°C 43.0°F6.1°C 98% 1.7 mph NNW2.7 kmh NNW 6.0 mph9.7 kmh 29.40 in995.6 mb 0.01 in0.3 mm 0.00 in0.0 mm 0.27 in6.9 mm
09:20 AM 43.6°F6.4°C 43.1°F6.2°C 98% 1.4 mph NW2.3 kmh NW 6.0 mph9.7 kmh 29.41 in995.9 mb 0.02 in0.5 mm 0.00 in0.0 mm 0.27 in6.9 mm
09:10 AM 43.9°F6.6°C 43.4°F6.3°C 98% 2.8 mph W4.5 kmh W 9.0 mph14.5 kmh 29.40 in995.6 mb 0.02 in0.5 mm 0.00 in0.0 mm 0.27 in6.9 mm
09:00 AM 43.5°F6.4°C 43.0°F6.1°C 98% 1.2 mph WNW1.9 kmh WNW 5.0 mph8.0 kmh 29.40 in995.6 mb 0.02 in0.5 mm 0.00 in0.0 mm 0.27 in6.9 mm
08:50 AM 43.0°F6.1°C 42.5°F5.8°C 98% 1.7 mph NW2.7 kmh NW 7.0 mph11.3 kmh 29.40 in995.6 mb 0.02 in0.5 mm 0.00 in0.0 mm 0.27 in6.9 mm
08:40 AM 43.1°F6.2°C 42.6°F5.9°C 98% 1.9 mph NW3.1 kmh NW 5.0 mph8.0 kmh 29.41 in995.9 mb 0.02 in0.5 mm 0.00 in0.0 mm 0.27 in6.9 mm
08:30 AM 43.2°F6.2°C 42.7°F5.9°C 98% 1.4 mph NNW2.3 kmh NNW 5.0 mph8.0 kmh 29.41 in995.9 mb 0.02 in0.5 mm 0.06 in1.5 mm 0.26 in6.6 mm
08:20 AM 43.1°F6.2°C 42.6°F5.9°C 98% 0.8 mph WNW1.3 kmh WNW 3.0 mph4.8 kmh 29.42 in996.3 mb 0.01 in0.3 mm 0.06 in1.5 mm 0.25 in6.4 mm
08:10 AM 43.0°F6.1°C 42.7°F5.9°C 99% 1.3 mph WNW2.1 kmh WNW 8.0 mph12.9 kmh 29.41 in995.9 mb 0.00 in0.0 mm 0.00 in0.0 mm 0.24 in6.1 mm
08:00 AM 42.9°F6.1°C 42.6°F5.9°C 99% 1.7 mph WNW2.7 kmh WNW 6.0 mph9.7 kmh 29.41 in995.9 mb 0.00 in0.0 mm 0.00 in0.0 mm 0.24 in6.1 mm
07:50 AM 42.8°F6.0°C 42.5°F5.8°C 99% 1.2 mph W1.9 kmh W 8.0 mph12.9 kmh 29.41 in995.9 mb 0.00 in0.0 mm 0.00 in0.0 mm 0.24 in6.1 mm
07:40 AM 42.4°F5.8°C 42.1°F5.6°C 99% 0.6 mph WNW1.0 kmh WNW 4.0 mph6.4 kmh 29.41 in995.9 mb 0.00 in0.0 mm 0.00 in0.0 mm 0.24 in6.1 mm
07:30 AM 42.1°F5.6°C 41.8°F5.4°C 99% 0.3 mph NW0.5 kmh NW 4.0 mph6.4 kmh 29.41 in995.9 mb 0.00 in0.0 mm 0.00 in0.0 mm 0.24 in6.1 mm
07:20 AM 41.7°F5.4°C 41.4°F5.2°C 99% 0.2 mph NW0.3 kmh NW 2.0 mph3.2 kmh 29.40 in995.6 mb 0.00 in0.0 mm 0.00 in0.0 mm 0.24 in6.1 mm
07:10 AM 41.6°F5.3°C 41.3°F5.2°C 99% 0.5 mph NW0.8 kmh NW 3.0 mph4.8 kmh 29.40 in995.6 mb 0.00 in0.0 mm 0.00 in0.0 mm 0.24 in6.1 mm
07:00 AM 41.5°F5.3°C 41.2°F5.1°C 99% 0.6 mph NW1.0 kmh NW 5.0 mph8.0 kmh 29.40 in995.6 mb 0.01 in0.3 mm 0.00 in0.0 mm 0.24 in6.1 mm
06:50 AM 41.3°F5.2°C 40.8°F4.9°C 98% 0.3 mph NW0.5 kmh NW 3.0 mph4.8 kmh 29.40 in995.6 mb 0.01 in0.3 mm 0.00 in0.0 mm 0.24 in6.1 mm
06:40 AM 41.3°F5.2°C 40.8°F4.9°C 98% 0.7 mph NW1.1 kmh NW 3.0 mph4.8 kmh 29.39 in995.3 mb 0.01 in0.3 mm 0.00 in0.0 mm 0.24 in6.1 mm
06:30 AM 41.4°F5.2°C 40.9°F4.9°C 98% 1.0 mph W1.6 kmh W 4.0 mph6.4 kmh 29.40 in995.6 mb 0.01 in0.3 mm 0.00 in0.0 mm 0.24 in6.1 mm
06:20 AM 41.4°F5.2°C 41.1°F5.1°C 99% 0.7 mph WNW1.1 kmh WNW 4.0 mph6.4 kmh 29.40 in995.6 mb 0.01 in0.3 mm 0.00 in0.0 mm 0.24 in6.1 mm
06:10 AM 41.5°F5.3°C 41.0°F5.0°C 98% 0.5 mph W0.8 kmh W 4.0 mph6.4 kmh 29.40 in995.6 mb 0.01 in0.3 mm 0.06 in1.5 mm 0.24 in6.1 mm
06:00 AM 41.7°F5.4°C 41.4°F5.2°C 99% 0.7 mph N1.1 kmh N 3.0 mph4.8 kmh 29.40 in995.6 mb 0.00 in0.0 mm 0.00 in0.0 mm 0.24 in6.1 mm
05:50 AM 41.9°F5.5°C 41.6°F5.3°C 99% 0.8 mph NNE1.3 kmh NNE 3.0 mph4.8 kmh 29.40 in995.6 mb 0.00 in0.0 mm 0.00 in0.0 mm 0.24 in6.1 mm
05:40 AM 41.9°F5.5°C 41.4°F5.2°C 98% 0.9 mph NW1.4 kmh NW 4.0 mph6.4 kmh 29.40 in995.6 mb 0.00 in0.0 mm 0.00 in0.0 mm 0.24 in6.1 mm
05:30 AM 42.2°F5.7°C 41.9°F5.5°C 99% 1.1 mph WNW1.8 kmh WNW 5.0 mph8.0 kmh 29.40 in995.6 mb 0.00 in0.0 mm 0.00 in0.0 mm 0.24 in6.1 mm
05:20 AM 42.3°F5.7°C 41.8°F5.4°C 98% 1.1 mph WNW1.8 kmh WNW 4.0 mph6.4 kmh 29.40 in995.6 mb 0.00 in0.0 mm 0.00 in0.0 mm 0.24 in6.1 mm
05:10 AM 42.5°F5.8°C 42.0°F5.6°C 98% 0.9 mph WNW1.4 kmh WNW 4.0 mph6.4 kmh 29.39 in995.3 mb 0.00 in0.0 mm 0.00 in0.0 mm 0.24 in6.1 mm
05:00 AM 42.6°F5.9°C 42.1°F5.6°C 98% 1.2 mph W1.9 kmh W 4.0 mph6.4 kmh 29.40 in995.6 mb 0.00 in0.0 mm 0.00 in0.0 mm 0.24 in6.1 mm
04:50 AM 42.9°F6.1°C 42.4°F5.8°C 98% 1.0 mph W1.6 kmh W 3.0 mph4.8 kmh 29.40 in995.6 mb 0.00 in0.0 mm 0.00 in0.0 mm 0.24 in6.1 mm
04:40 AM 43.0°F6.1°C 42.5°F5.8°C 98% 1.4 mph W2.3 kmh W 3.0 mph4.8 kmh 29.40 in995.6 mb 0.00 in0.0 mm 0.00 in0.0 mm 0.24 in6.1 mm
04:30 AM 43.1°F6.2°C 42.6°F5.9°C 98% 1.3 mph WNW2.1 kmh WNW 6.0 mph9.7 kmh 29.40 in995.6 mb 0.00 in0.0 mm 0.00 in0.0 mm 0.24 in6.1 mm
04:20 AM 43.3°F6.3°C 42.8°F6.0°C 98% 1.4 mph W2.3 kmh W 5.0 mph8.0 kmh 29.40 in995.6 mb 0.00 in0.0 mm 0.00 in0.0 mm 0.24 in6.1 mm
04:10 AM 43.7°F6.5°C 43.2°F6.2°C 98% 1.5 mph W2.4 kmh W 4.0 mph6.4 kmh 29.40 in995.6 mb 0.00 in0.0 mm 0.00 in0.0 mm 0.24 in6.1 mm
04:00 AM 43.7°F6.5°C 43.2°F6.2°C 98% 1.1 mph W1.8 kmh W 6.0 mph9.7 kmh 29.40 in995.6 mb 0.00 in0.0 mm 0.00 in0.0 mm 0.24 in6.1 mm
03:50 AM 43.8°F6.6°C 43.3°F6.3°C 98% 1.2 mph WNW1.9 kmh WNW 4.0 mph6.4 kmh 29.40 in995.6 mb 0.00 in0.0 mm 0.00 in0.0 mm 0.24 in6.1 mm
03:40 AM 43.9°F6.6°C 43.4°F6.3°C 98% 0.8 mph WNW1.3 kmh WNW 3.0 mph4.8 kmh 29.39 in995.3 mb 0.00 in0.0 mm 0.00 in0.0 mm 0.24 in6.1 mm
03:30 AM 44.2°F6.8°C 43.7°F6.5°C 98% 1.3 mph W2.1 kmh W 4.0 mph6.4 kmh 29.39 in995.3 mb 0.00 in0.0 mm 0.00 in0.0 mm 0.24 in6.1 mm
03:20 AM 44.4°F6.9°C 43.9°F6.6°C 98% 1.7 mph W2.7 kmh W 5.0 mph8.0 kmh 29.39 in995.3 mb 0.00 in0.0 mm 0.00 in0.0 mm 0.24 in6.1 mm
03:10 AM 44.7°F7.1°C 44.2°F6.8°C 98% 1.5 mph W2.4 kmh W 5.0 mph8.0 kmh 29.39 in995.3 mb 0.00 in0.0 mm 0.00 in0.0 mm 0.24 in6.1 mm
03:00 AM 44.8°F7.1°C 44.3°F6.8°C 98% 1.1 mph W1.8 kmh W 4.0 mph6.4 kmh 29.39 in995.3 mb 0.00 in0.0 mm 0.00 in0.0 mm 0.24 in6.1 mm
02:50 AM 44.9°F7.2°C 44.4°F6.9°C 98% 0.8 mph W1.3 kmh W 3.0 mph4.8 kmh 29.40 in995.6 mb 0.00 in0.0 mm 0.00 in0.0 mm 0.24 in6.1 mm
02:40 AM 45.1°F7.3°C 44.6°F7.0°C 98% 1.0 mph W1.6 kmh W 4.0 mph6.4 kmh 29.39 in995.3 mb 0.00 in0.0 mm 0.00 in0.0 mm 0.24 in6.1 mm
02:30 AM 45.2°F7.3°C 44.7°F7.1°C 98% 1.2 mph W1.9 kmh W 3.0 mph4.8 kmh 29.39 in995.3 mb 0.00 in0.0 mm 0.00 in0.0 mm 0.24 in6.1 mm
02:20 AM 45.3°F7.4°C 44.8°F7.1°C 98% 1.2 mph W1.9 kmh W 4.0 mph6.4 kmh 29.40 in995.6 mb 0.00 in0.0 mm 0.00 in0.0 mm 0.24 in6.1 mm
02:00 AM 45.5°F7.5°C 45.0°F7.2°C 98% 1.3 mph W2.1 kmh W 4.0 mph6.4 kmh 29.40 in995.6 mb 0.01 in0.3 mm 0.00 in0.0 mm 0.24 in6.1 mm
01:50 AM 45.6°F7.6°C 45.1°F7.3°C 98% 1.4 mph W2.3 kmh W 3.0 mph4.8 kmh 29.41 in995.9 mb 0.03 in0.8 mm 0.00 in0.0 mm 0.24 in6.1 mm
01:40 AM 45.6°F7.6°C 45.1°F7.3°C 98% 0.5 mph W0.8 kmh W 2.0 mph3.2 kmh 29.41 in995.9 mb 0.06 in1.5 mm 0.00 in0.0 mm 0.24 in6.1 mm
01:30 AM 45.7°F7.6°C 45.2°F7.3°C 98% 0.3 mph W0.5 kmh W 2.0 mph3.2 kmh 29.41 in995.9 mb 0.06 in1.5 mm 0.00 in0.0 mm 0.24 in6.1 mm
01:20 AM 45.8°F7.7°C 45.3°F7.4°C 98% 0.3 mph WNW0.5 kmh WNW 2.0 mph3.2 kmh 29.41 in995.9 mb 0.09 in2.3 mm 0.00 in0.0 mm 0.24 in6.1 mm
01:10 AM 45.9°F7.7°C 45.4°F7.4°C 98% 0.4 mph WNW0.6 kmh WNW 3.0 mph4.8 kmh 29.41 in995.9 mb 0.14 in3.6 mm 0.00 in0.0 mm 0.24 in6.1 mm
01:00 AM 46.1°F7.8°C 45.6°F7.6°C 98% 0.8 mph NW1.3 kmh NW 4.0 mph6.4 kmh 29.42 in996.3 mb 0.16 in4.1 mm 0.00 in0.0 mm 0.23 in5.8 mm
12:50 AM 46.2°F7.9°C 45.7°F7.6°C 98% 0.8 mph WNW1.3 kmh WNW 4.0 mph6.4 kmh 29.42 in996.3 mb 0.17 in4.3 mm 0.00 in0.0 mm 0.20 in5.1 mm
12:40 AM 46.1°F7.8°C 45.3°F7.4°C 97% 0.6 mph W1.0 kmh W 4.0 mph6.4 kmh 29.42 in996.3 mb 0.17 in4.3 mm 0.00 in0.0 mm 0.18 in4.6 mm
12:30 AM 45.8°F7.7°C 45.0°F7.2°C 97% 0.8 mph ESE1.3 kmh ESE 4.0 mph6.4 kmh 29.43 in996.6 mb 0.17 in4.3 mm 0.24 in6.1 mm 0.17 in4.3 mm
12:20 AM 46.3°F7.9°C 45.5°F7.5°C 97% 1.0 mph SE1.6 kmh SE 4.0 mph6.4 kmh 29.42 in996.3 mb 0.13 in3.3 mm 0.24 in6.1 mm 0.13 in3.3 mm
12:10 AM 46.7°F8.2°C 46.2°F7.9°C 98% 0.9 mph SE1.4 kmh SE 4.0 mph6.4 kmh 29.43 in996.6 mb 0.09 in2.3 mm 0.12 in3.0 mm 0.09 in2.3 mm
12:00 AM 46.8°F8.2°C 46.3°F7.9°C 98% 1.1 mph SE1.8 kmh SE 7.0 mph11.3 kmh 29.43 in996.6 mb 0.07 in1.8 mm 0.00 in0.0 mm 0.07 in1.8 mm